sensor_id;sensor_type;location;lat;lon;timestamp;pressure;altitude;pressure_sealevel;temperature;humidity
39769;BME280;38939;47.824;14.642;2023-10-09T00:00:25;97526.47;;;16.45;76.59
39769;BME280;38939;47.824;14.642;2023-10-09T00:01:43;97530.94;;;16.45;76.75
39769;BME280;38939;47.824;14.642;2023-10-09T00:02:45;97521.66;;;16.42;76.12
39769;BME280;38939;47.824;14.642;2023-10-09T00:03:49;97519.03;;;16.42;76.08
39769;BME280;38939;47.824;14.642;2023-10-09T00:04:55;97515.34;;;16.43;75.97
39769;BME280;38939;47.824;14.642;2023-10-09T00:05:58;97523.25;;;16.43;76.25
39769;BME280;38939;47.824;14.642;2023-10-09T00:07:00;97515.34;;;16.43;76.08
39769;BME280;38939;47.824;14.642;2023-10-09T00:08:03;97521.66;;;16.42;76.69
39769;BME280;38939;47.824;14.642;2023-10-09T00:09:05;97521.50;;;16.37;77.52
39769;BME280;38939;47.824;14.642;2023-10-09T00:10:19;97523.78;;;16.33;77.36
39769;BME280;38939;47.824;14.642;2023-10-09T00:11:21;97530.88;;;16.33;77.02
39769;BME280;38939;47.824;14.642;2023-10-09T00:12:28;97524.56;;;16.34;76.47
39769;BME280;38939;47.824;14.642;2023-10-09T00:13:30;97527.66;;;16.31;76.40
39769;BME280;38939;47.824;14.642;2023-10-09T00:14:32;97524.47;;;16.29;76.64
39769;BME280;38939;47.824;14.642;2023-10-09T00:15:36;97514.94;;;16.28;76.67
39769;BME280;38939;47.824;14.642;2023-10-09T00:16:37;97509.44;;;16.29;76.69
39769;BME280;38939;47.824;14.642;2023-10-09T00:17:48;97501.34;;;16.31;76.56
39769;BME280;38939;47.824;14.642;2023-10-09T00:18:51;97508.19;;;16.32;76.05
39769;BME280;38939;47.824;14.642;2023-10-09T00:19:55;97506.59;;;16.31;76.35
39769;BME280;38939;47.824;14.642;2023-10-09T00:21:02;97498.91;;;16.29;76.44
39769;BME280;38939;47.824;14.642;2023-10-09T00:22:14;97479.69;;;16.29;76.50
39769;BME280;38939;47.824;14.642;2023-10-09T00:23:25;97480.47;;;16.29;77.00
39769;BME280;38939;47.824;14.642;2023-10-09T00:24:27;97481.75;;;16.27;76.83
39769;BME280;38939;47.824;14.642;2023-10-09T00:25:30;97483.22;;;16.23;76.66
39769;BME280;38939;47.824;14.642;2023-10-09T00:26:37;97486.75;;;16.16;77.32
39769;BME280;38939;47.824;14.642;2023-10-09T00:27:45;97492.22;;;16.15;76.87
39769;BME280;38939;47.824;14.642;2023-10-09T00:28:48;97478.84;;;16.16;76.75
39769;BME280;38939;47.824;14.642;2023-10-09T00:29:53;97479.63;;;16.17;77.22
39769;BME280;38939;47.824;14.642;2023-10-09T00:30:57;97484.91;;;16.17;77.39
39769;BME280;38939;47.824;14.642;2023-10-09T00:31:58;97481.25;;;16.18;77.02
39769;BME280;38939;47.824;14.642;2023-10-09T00:33:15;97488.59;;;16.16;76.67
39769;BME280;38939;47.824;14.642;2023-10-09T00:34:17;97483.53;;;16.14;76.86
39769;BME280;38939;47.824;14.642;2023-10-09T00:35:23;97474.84;;;16.14;76.98
39769;BME280;38939;47.824;14.642;2023-10-09T00:37:00;97475.63;;;16.14;76.80
39769;BME280;38939;47.824;14.642;2023-10-09T00:38:06;97474.00;;;16.13;76.90
39769;BME280;38939;47.824;14.642;2023-10-09T00:39:31;97465.53;;;16.11;76.65
39769;BME280;38939;47.824;14.642;2023-10-09T00:40:35;97458.69;;;16.10;76.81
39769;BME280;38939;47.824;14.642;2023-10-09T00:41:46;97455.25;;;16.10;76.69
39769;BME280;38939;47.824;14.642;2023-10-09T00:42:49;97456.69;;;16.06;76.67
39769;BME280;38939;47.824;14.642;2023-10-09T00:43:51;97466.06;;;16.02;76.83
39769;BME280;38939;47.824;14.642;2023-10-09T00:44:55;97461.69;;;15.95;77.29
39769;BME280;38939;47.824;14.642;2023-10-09T00:45:58;97463.72;;;15.93;77.05
39769;BME280;38939;47.824;14.642;2023-10-09T00:47:06;97459.28;;;15.94;77.03
39769;BME280;38939;47.824;14.642;2023-10-09T00:48:22;97457.25;;;15.96;77.81
39769;BME280;38939;47.824;14.642;2023-10-09T00:49:32;97453.00;;;15.95;77.92
39769;BME280;38939;47.824;14.642;2023-10-09T00:50:35;97459.63;;;15.97;77.77
39769;BME280;38939;47.824;14.642;2023-10-09T00:51:42;97455.19;;;15.98;77.79
39769;BME280;38939;47.824;14.642;2023-10-09T00:53:05;97446.03;;;16.00;77.62
39769;BME280;38939;47.824;14.642;2023-10-09T00:54:14;97450.84;;;16.04;77.29
39769;BME280;38939;47.824;14.642;2023-10-09T00:55:17;97450.84;;;16.04;77.34
39769;BME280;38939;47.824;14.642;2023-10-09T00:56:40;97451.88;;;16.03;77.29
39769;BME280;38939;47.824;14.642;2023-10-09T00:57:45;97454.31;;;16.04;77.36
39769;BME280;38939;47.824;14.642;2023-10-09T00:59:10;97431.63;;;16.03;77.20
39769;BME280;38939;47.824;14.642;2023-10-09T01:00:21;97444.00;;;16.03;77.00
39769;BME280;38939;47.824;14.642;2023-10-09T01:01:47;97440.19;;;15.98;77.41
39769;BME280;38939;47.824;14.642;2023-10-09T01:03:00;97434.94;;;15.98;77.35
39769;BME280;38939;47.824;14.642;2023-10-09T01:04:25;97433.69;;;16.01;77.10
39769;BME280;38939;47.824;14.642;2023-10-09T01:05:30;97441.16;;;16.04;77.20
39769;BME280;38939;47.824;14.642;2023-10-09T01:06:33;97438.50;;;16.04;77.11
39769;BME280;38939;47.824;14.642;2023-10-09T01:07:36;97427.72;;;16.06;77.05
39769;BME280;38939;47.824;14.642;2023-10-09T01:08:39;97423.28;;;16.06;77.39
39769;BME280;38939;47.824;14.642;2023-10-09T01:09:43;97425.94;;;16.06;78.03
39769;BME280;38939;47.824;14.642;2023-10-09T01:10:46;97427.97;;;16.04;78.28
39769;BME280;38939;47.824;14.642;2023-10-09T01:12:10;97431.63;;;16.03;77.81
39769;BME280;38939;47.824;14.642;2023-10-09T01:13:19;97426.34;;;16.03;77.50
39769;BME280;38939;47.824;14.642;2023-10-09T01:14:21;97426.34;;;16.03;77.79
39769;BME280;38939;47.824;14.642;2023-10-09T01:15:24;97423.16;;;16.01;77.44
39769;BME280;38939;47.824;14.642;2023-10-09T01:16:45;97414.25;;;16.02;77.48
39769;BME280;38939;47.824;14.642;2023-10-09T01:17:49;97418.69;;;16.02;77.62
39769;BME280;38939;47.824;14.642;2023-10-09T01:18:54;97426.56;;;16.02;77.47
39769;BME280;38939;47.824;14.642;2023-10-09T01:19:59;97423.16;;;16.01;77.33
39769;BME280;38939;47.824;14.642;2023-10-09T01:21:05;97420.72;;;15.99;77.25
39769;BME280;38939;47.824;14.642;2023-10-09T01:22:06;97421.78;;;15.98;77.33
39769;BME280;38939;47.824;14.642;2023-10-09T01:23:15;97423.59;;;15.98;77.36
39769;BME280;38939;47.824;14.642;2023-10-09T01:24:17;97417.31;;;15.99;77.47
39769;BME280;38939;47.824;14.642;2023-10-09T01:25:21;97424.41;;;15.98;77.26
39769;BME280;38939;47.824;14.642;2023-10-09T01:26:23;97428.88;;;15.98;77.09
39769;BME280;38939;47.824;14.642;2023-10-09T01:27:25;97423.03;;;15.96;77.20
39769;BME280;38939;47.824;14.642;2023-10-09T01:28:34;97425.88;;;15.94;77.18
39769;BME280;38939;47.824;14.642;2023-10-09T01:29:36;97430.78;;;15.91;77.08
39769;BME280;38939;47.824;14.642;2023-10-09T01:30:38;97418.88;;;15.88;76.88
39769;BME280;38939;47.824;14.642;2023-10-09T01:32:01;97434.88;;;15.87;76.98
39769;BME280;38939;47.824;14.642;2023-10-09T01:33:03;97427.88;;;15.80;77.16
39769;BME280;38939;47.824;14.642;2023-10-09T01:34:13;97427.28;;;15.78;77.32
39769;BME280;38939;47.824;14.642;2023-10-09T01:35:17;97425.25;;;15.80;77.47
39769;BME280;38939;47.824;14.642;2023-10-09T01:36:25;97424.44;;;15.80;77.15
39769;BME280;38939;47.824;14.642;2023-10-09T01:37:33;97423.88;;;15.78;77.32
39769;BME280;38939;47.824;14.642;2023-10-09T01:38:38;97425.13;;;15.75;77.29
39769;BME280;38939;47.824;14.642;2023-10-09T01:39:45;97424.28;;;15.75;77.31
39769;BME280;38939;47.824;14.642;2023-10-09T01:40:50;97420.66;;;15.76;77.30
39769;BME280;38939;47.824;14.642;2023-10-09T01:41:53;97419.84;;;15.75;77.43
39769;BME280;38939;47.824;14.642;2023-10-09T01:43:02;97417.44;;;15.74;77.82
39769;BME280;38939;47.824;14.642;2023-10-09T01:44:05;97426.34;;;15.73;77.53
39769;BME280;38939;47.824;14.642;2023-10-09T01:45:14;97423.91;;;15.71;77.25
39769;BME280;38939;47.824;14.642;2023-10-09T01:46:22;97418.25;;;15.74;77.32
39769;BME280;38939;47.824;14.642;2023-10-09T01:47:25;97416.41;;;15.75;77.41
39769;BME280;38939;47.824;14.642;2023-10-09T01:48:33;97410.94;;;15.76;77.17
39769;BME280;38939;47.824;14.642;2023-10-09T01:49:41;97412.53;;;15.77;77.06
39769;BME280;38939;47.824;14.642;2023-10-09T01:50:45;97413.13;;;15.79;77.10
39769;BME280;38939;47.824;14.642;2023-10-09T01:51:50;97416.75;;;15.78;77.08
39769;BME280;38939;47.824;14.642;2023-10-09T01:52:52;97414.19;;;15.72;78.03
39769;BME280;38939;47.824;14.642;2023-10-09T01:53:54;97414.63;;;15.69;77.74
39769;BME280;38939;47.824;14.642;2023-10-09T01:54:58;97413.84;;;15.68;77.35
39769;BME280;38939;47.824;14.642;2023-10-09T01:56:10;97406.16;;;15.67;77.58
39769;BME280;38939;47.824;14.642;2023-10-09T01:57:16;97409.56;;;15.67;77.58
39769;BME280;38939;47.824;14.642;2023-10-09T01:58:24;97403.16;;;15.63;77.49
39769;BME280;38939;47.824;14.642;2023-10-09T01:59:26;97410.25;;;15.63;77.63
39769;BME280;38939;47.824;14.642;2023-10-09T02:00:28;97415.72;;;15.61;77.55
39769;BME280;38939;47.824;14.642;2023-10-09T02:01:31;97414.72;;;15.62;77.41
39769;BME280;38939;47.824;14.642;2023-10-09T02:02:35;97400.53;;;15.63;77.41
39769;BME280;38939;47.824;14.642;2023-10-09T02:03:36;97402.16;;;15.64;77.53
39769;BME280;38939;47.824;14.642;2023-10-09T02:04:40;97410.84;;;15.65;77.53
39769;BME280;38939;47.824;14.642;2023-10-09T02:05:42;97410.03;;;15.64;77.31
39769;BME280;38939;47.824;14.642;2023-10-09T02:06:44;97401.94;;;15.66;77.30
39769;BME280;38939;47.824;14.642;2023-10-09T02:07:46;97409.56;;;15.67;77.48
39769;BME280;38939;47.824;14.642;2023-10-09T02:08:54;97406.38;;;15.65;77.82
39769;BME280;38939;47.824;14.642;2023-10-09T02:09:57;97397.69;;;15.65;77.58
39769;BME280;38939;47.824;14.642;2023-10-09T02:10:59;97405.34;;;15.66;77.47
39769;BME280;38939;47.824;14.642;2023-10-09T02:12:04;97398.47;;;15.65;77.53
39769;BME280;38939;47.824;14.642;2023-10-09T02:13:06;97398.47;;;15.65;77.23
39769;BME280;38939;47.824;14.642;2023-10-09T02:14:09;97399.31;;;15.66;77.49
39769;BME280;38939;47.824;14.642;2023-10-09T02:15:29;97391.03;;;15.62;77.55
39769;BME280;38939;47.824;14.642;2023-10-09T02:16:47;97391.03;;;15.62;77.30
39769;BME280;38939;47.824;14.642;2023-10-09T02:18:15;97398.94;;;15.62;77.33
39769;BME280;38939;47.824;14.642;2023-10-09T02:19:41;97400.78;;;15.62;76.97
39769;BME280;38939;47.824;14.642;2023-10-09T02:20:44;97388.63;;;15.60;77.05
39769;BME280;38939;47.824;14.642;2023-10-09T02:21:47;97396.72;;;15.59;77.27
39769;BME280;38939;47.824;14.642;2023-10-09T02:22:50;97387.09;;;15.53;77.81
39769;BME280;38939;47.824;14.642;2023-10-09T02:23:54;97389.16;;;15.51;77.93
39769;BME280;38939;47.824;14.642;2023-10-09T02:24:58;97393.81;;;15.49;78.46
39769;BME280;38939;47.824;14.642;2023-10-09T02:26:01;97405.22;;;15.43;78.82
39769;BME280;38939;47.824;14.642;2023-10-09T02:27:08;97402.59;;;15.43;78.56
39769;BME280;38939;47.824;14.642;2023-10-09T02:28:10;97392.06;;;15.43;78.36
39769;BME280;38939;47.824;14.642;2023-10-09T02:29:21;97393.69;;;15.44;78.15
39769;BME280;38939;47.824;14.642;2023-10-09T02:30:26;97390.03;;;15.45;78.11
39769;BME280;38939;47.824;14.642;2023-10-09T02:31:31;97397.53;;;15.41;77.96
39769;BME280;38939;47.824;14.642;2023-10-09T02:32:43;97391.38;;;15.35;78.62
39769;BME280;38939;47.824;14.642;2023-10-09T02:33:46;97384.28;;;15.36;78.00
39769;BME280;38939;47.824;14.642;2023-10-09T02:34:50;97384.06;;;15.37;78.46
39769;BME280;38939;47.824;14.642;2023-10-09T02:35:55;97394.41;;;15.32;79.10
39769;BME280;38939;47.824;14.642;2023-10-09T02:37:01;97389.47;;;15.24;79.91
39769;BME280;38939;47.824;14.642;2023-10-09T02:38:07;97382.03;;;15.21;79.68
39769;BME280;38939;47.824;14.642;2023-10-09T02:39:12;97383.41;;;15.24;78.99
39769;BME280;38939;47.824;14.642;2023-10-09T02:40:28;97381.56;;;15.24;79.14
39769;BME280;38939;47.824;14.642;2023-10-09T02:41:35;97379.16;;;15.23;79.59
39769;BME280;38939;47.824;14.642;2023-10-09T02:42:47;97373.47;;;15.26;78.94
39769;BME280;38939;47.824;14.642;2023-10-09T02:43:48;97374.25;;;15.26;78.73
39769;BME280;38939;47.824;14.642;2023-10-09T02:44:57;97380.56;;;15.25;78.66
39769;BME280;38939;47.824;14.642;2023-10-09T02:46:01;97381.56;;;15.24;78.48
39769;BME280;38939;47.824;14.642;2023-10-09T02:47:15;97372.69;;;15.25;78.51
39769;BME280;38939;47.824;14.642;2023-10-09T02:48:32;97363.38;;;15.23;79.38
39769;BME280;38939;47.824;14.642;2023-10-09T02:49:38;97364.84;;;15.18;79.66
39769;BME280;38939;47.824;14.642;2023-10-09T02:50:41;97362.22;;;15.18;79.69
39769;BME280;38939;47.824;14.642;2023-10-09T02:51:46;97365.66;;;15.19;79.38
39769;BME280;38939;47.824;14.642;2023-10-09T02:52:54;97365.66;;;15.19;79.80
39769;BME280;38939;47.824;14.642;2023-10-09T02:54:02;97371.94;;;15.18;79.82
39769;BME280;38939;47.824;14.642;2023-10-09T02:55:22;97361.88;;;15.15;79.70
39769;BME280;38939;47.824;14.642;2023-10-09T02:56:27;97358.22;;;15.16;79.52
39769;BME280;38939;47.824;14.642;2023-10-09T02:57:39;97349.91;;;15.19;79.23
39769;BME280;38939;47.824;14.642;2023-10-09T02:58:43;97362.22;;;15.18;79.02
39769;BME280;38939;47.824;14.642;2023-10-09T02:59:45;97353.75;;;15.16;79.27
39769;BME280;38939;47.824;14.642;2023-10-09T03:00:47;97359.25;;;15.15;79.22
39769;BME280;38939;47.824;14.642;2023-10-09T03:01:50;97350.31;;;15.16;79.02
39769;BME280;38939;47.824;14.642;2023-10-09T03:02:55;97348.28;;;15.18;78.90
39769;BME280;38939;47.824;14.642;2023-10-09T03:04:00;97362.22;;;15.18;79.29
39769;BME280;38939;47.824;14.642;2023-10-09T03:05:04;97347.28;;;15.19;79.00
39769;BME280;38939;47.824;14.642;2023-10-09T03:06:05;97347.28;;;15.19;79.28
39769;BME280;38939;47.824;14.642;2023-10-09T03:07:13;97349.06;;;15.18;79.41
39769;BME280;38939;47.824;14.642;2023-10-09T03:08:15;97348.84;;;15.20;79.47
39769;BME280;38939;47.824;14.642;2023-10-09T03:09:20;97348.06;;;15.19;79.21
39769;BME280;38939;47.824;14.642;2023-10-09T03:10:32;97354.91;;;15.20;79.21
39769;BME280;38939;47.824;14.642;2023-10-09T03:11:35;97346.22;;;15.20;78.97
39769;BME280;38939;47.824;14.642;2023-10-09T03:12:38;97344.28;;;15.15;79.04
39769;BME280;38939;47.824;14.642;2023-10-09T03:13:42;97341.06;;;15.13;79.57
39769;BME280;38939;47.824;14.642;2023-10-09T03:14:47;97345.53;;;15.13;79.32
39769;BME280;38939;47.824;14.642;2023-10-09T03:15:48;97333.38;;;15.12;79.14
39769;BME280;38939;47.824;14.642;2023-10-09T03:16:53;97334.41;;;15.11;79.02
39769;BME280;38939;47.824;14.642;2023-10-09T03:17:55;97350.19;;;15.11;78.97
39769;BME280;38939;47.824;14.642;2023-10-09T03:18:57;97355.66;;;15.09;78.83
39769;BME280;38939;47.824;14.642;2023-10-09T03:19:59;97348.78;;;15.08;78.95
39769;BME280;38939;47.824;14.642;2023-10-09T03:21:01;97337.69;;;15.06;79.74
39769;BME280;38939;47.824;14.642;2023-10-09T03:22:03;97326.81;;;15.03;79.86
39769;BME280;38939;47.824;14.642;2023-10-09T03:23:05;97336.72;;;15.00;80.09
39769;BME280;38939;47.824;14.642;2023-10-09T03:24:11;97346.66;;;14.98;79.64
39769;BME280;38939;47.824;14.642;2023-10-09T03:25:13;97342.28;;;14.92;80.29
39769;BME280;38939;47.824;14.642;2023-10-09T03:26:19;97330.97;;;14.92;79.88
39769;BME280;38939;47.824;14.642;2023-10-09T03:27:22;97327.34;;;14.93;79.49
39769;BME280;38939;47.824;14.642;2023-10-09T03:28:24;97328.34;;;14.92;80.01
39769;BME280;38939;47.824;14.642;2023-10-09T03:29:26;97329.38;;;14.91;79.94
39769;BME280;38939;47.824;14.642;2023-10-09T03:30:29;97320.69;;;14.90;79.58
39769;BME280;38939;47.824;14.642;2023-10-09T03:31:34;97322.88;;;14.93;79.33
39769;BME280;38939;47.824;14.642;2023-10-09T03:32:38;97325.28;;;14.95;79.13
39769;BME280;38939;47.824;14.642;2023-10-09T03:33:40;97329.72;;;14.94;79.22
39769;BME280;38939;47.824;14.642;2023-10-09T03:34:42;97328.13;;;14.93;79.07
39769;BME280;38939;47.824;14.642;2023-10-09T03:35:45;97320.03;;;14.95;79.07
39769;BME280;38939;47.824;14.642;2023-10-09T03:36:47;97313.16;;;14.94;79.32
39769;BME280;38939;47.824;14.642;2023-10-09T03:37:57;97321.25;;;14.92;79.90
39769;BME280;38939;47.824;14.642;2023-10-09T03:39:14;97324.13;;;14.91;79.71
39769;BME280;38939;47.824;14.642;2023-10-09T03:40:42;97311.56;;;14.93;79.47
39769;BME280;38939;47.824;14.642;2023-10-09T03:41:44;97310.31;;;14.95;79.56
39769;BME280;38939;47.824;14.642;2023-10-09T03:42:48;97311.13;;;14.96;79.40
39769;BME280;38939;47.824;14.642;2023-10-09T03:43:50;97317.75;;;14.98;79.34
39769;BME280;38939;47.824;14.642;2023-10-09T03:44:52;97310.69;;;14.99;79.32
39769;BME280;38939;47.824;14.642;2023-10-09T03:45:56;97301.19;;;14.98;79.21
39769;BME280;38939;47.824;14.642;2023-10-09T03:46:59;97309.06;;;14.98;79.05
39769;BME280;38939;47.824;14.642;2023-10-09T03:48:01;97319.00;;;14.96;79.56
39769;BME280;38939;47.824;14.642;2023-10-09T03:49:13;97313.16;;;14.94;79.64
39769;BME280;38939;47.824;14.642;2023-10-09T03:50:23;97322.88;;;14.93;79.68
39769;BME280;38939;47.824;14.642;2023-10-09T03:51:28;97321.25;;;14.92;79.75
39769;BME280;38939;47.824;14.642;2023-10-09T03:52:31;97317.63;;;14.93;79.58
39769;BME280;38939;47.824;14.642;2023-10-09T03:53:33;97308.69;;;14.94;79.41
39769;BME280;38939;47.824;14.642;2023-10-09T03:54:37;97307.78;;;14.89;80.08
39769;BME280;38939;47.824;14.642;2023-10-09T03:55:40;97311.03;;;14.84;80.33
39769;BME280;38939;47.824;14.642;2023-10-09T03:56:43;97301.56;;;14.83;80.19
39769;BME280;38939;47.824;14.642;2023-10-09T03:57:45;97299.94;;;14.82;80.04
39769;BME280;38939;47.824;14.642;2023-10-09T03:58:50;97298.34;;;14.81;80.02
39769;BME280;38939;47.824;14.642;2023-10-09T03:59:53;97302.00;;;14.80;80.30
39769;BME280;38939;47.824;14.642;2023-10-09T04:00:57;97297.19;;;14.77;80.51
39769;BME280;38939;47.824;14.642;2023-10-09T04:01:59;97283.22;;;14.76;80.60
39769;BME280;38939;47.824;14.642;2023-10-09T04:03:00;97301.41;;;14.78;80.41
39769;BME280;38939;47.824;14.642;2023-10-09T04:04:04;97308.28;;;14.79;80.46
39769;BME280;38939;47.824;14.642;2023-10-09T04:05:08;97307.25;;;14.80;80.23
39769;BME280;38939;47.824;14.642;2023-10-09T04:06:10;97298.34;;;14.81;80.38
39769;BME280;38939;47.824;14.642;2023-10-09T04:07:13;97286.22;;;14.80;80.72
39769;BME280;38939;47.824;14.642;2023-10-09T04:08:18;97295.94;;;14.79;80.70
39769;BME280;38939;47.824;14.642;2023-10-09T04:09:31;97297.56;;;14.80;80.44
39769;BME280;38939;47.824;14.642;2023-10-09T04:10:41;97302.00;;;14.80;80.52
39769;BME280;38939;47.824;14.642;2023-10-09T04:11:56;97307.25;;;14.80;80.79
39769;BME280;38939;47.824;14.642;2023-10-09T04:13:13;97287.91;;;14.74;81.04
39769;BME280;38939;47.824;14.642;2023-10-09T04:14:19;97293.16;;;14.74;80.77
39769;BME280;38939;47.824;14.642;2023-10-09T04:15:28;97298.78;;;14.78;80.87
39769;BME280;38939;47.824;14.642;2023-10-09T04:16:32;97286.47;;;14.78;80.85
39769;BME280;38939;47.824;14.642;2023-10-09T04:17:34;97274.72;;;14.81;80.83
39769;BME280;38939;47.824;14.642;2023-10-09T04:18:37;97293.97;;;14.75;81.91
39769;BME280;38939;47.824;14.642;2023-10-09T04:19:40;97292.56;;;14.72;81.77
39769;BME280;38939;47.824;14.642;2023-10-09T04:20:49;97290.69;;;14.61;82.57
39769;BME280;38939;47.824;14.642;2023-10-09T04:22:30;97285.63;;;14.59;82.57
39769;BME280;38939;47.824;14.642;2023-10-09T04:23:40;97279.97;;;14.63;82.07
39769;BME280;38939;47.824;14.642;2023-10-09T04:25:01;97268.22;;;14.65;82.34
39769;BME280;38939;47.824;14.642;2023-10-09T04:26:03;97277.94;;;14.65;82.36
39769;BME280;38939;47.824;14.642;2023-10-09T04:27:15;97276.69;;;14.67;82.30
39769;BME280;38939;47.824;14.642;2023-10-09T04:28:19;97277.06;;;14.71;81.73
39769;BME280;38939;47.824;14.642;2023-10-09T04:29:22;97289.94;;;14.72;81.84
39769;BME280;38939;47.824;14.642;2023-10-09T04:30:30;97279.81;;;14.76;81.59
39769;BME280;38939;47.824;14.642;2023-10-09T04:31:33;97261.22;;;14.77;81.43
39769;BME280;38939;47.824;14.642;2023-10-09T04:32:36;97263.84;;;14.77;81.89
39769;BME280;38939;47.824;14.642;2023-10-09T04:33:41;97276.59;;;14.74;82.05
39769;BME280;38939;47.824;14.642;2023-10-09T04:34:56;97283.69;;;14.73;82.13
39769;BME280;38939;47.824;14.642;2023-10-09T04:36:18;97270.34;;;14.75;81.80
39769;BME280;38939;47.824;14.642;2023-10-09T04:37:19;97252.97;;;14.74;82.01
39769;BME280;38939;47.824;14.642;2023-10-09T04:38:39;97266.53;;;14.71;82.63
39769;BME280;38939;47.824;14.642;2023-10-09T04:39:55;97263.91;;;14.71;82.39
39769;BME280;38939;47.824;14.642;2023-10-09T04:41:12;97268.50;;;14.75;82.07
39769;BME280;38939;47.824;14.642;2023-10-09T04:42:29;97277.75;;;14.78;81.63
39769;BME280;38939;47.824;14.642;2023-10-09T04:43:40;97282.81;;;14.79;81.71
39769;BME280;38939;47.824;14.642;2023-10-09T04:44:46;97273.69;;;14.82;81.44
39769;BME280;38939;47.824;14.642;2023-10-09T04:46:06;97275.50;;;14.82;81.17
39769;BME280;38939;47.824;14.642;2023-10-09T04:47:10;97275.50;;;14.82;81.31
39769;BME280;38939;47.824;14.642;2023-10-09T04:48:15;97276.31;;;14.82;80.92
39769;BME280;38939;47.824;14.642;2023-10-09T04:49:36;97284.19;;;14.82;81.25
39769;BME280;38939;47.824;14.642;2023-10-09T04:50:50;97285.81;;;14.83;81.61
39769;BME280;38939;47.824;14.642;2023-10-09T04:52:10;97296.59;;;14.75;82.31
39769;BME280;38939;47.824;14.642;2023-10-09T04:53:20;97293.59;;;14.71;82.28
39769;BME280;38939;47.824;14.642;2023-10-09T04:54:25;97271.78;;;14.71;81.88
39769;BME280;38939;47.824;14.642;2023-10-09T04:55:41;97275.63;;;14.68;82.48
39769;BME280;38939;47.824;14.642;2023-10-09T04:56:55;97275.06;;;14.66;82.42
39769;BME280;38939;47.824;14.642;2023-10-09T04:57:57;97277.25;;;14.69;82.13
39769;BME280;38939;47.824;14.642;2023-10-09T04:59:03;97290.41;;;14.69;82.04
39769;BME280;38939;47.824;14.642;2023-10-09T05:00:10;97276.22;;;14.70;81.90
39769;BME280;38939;47.824;14.642;2023-10-09T05:01:27;97255.22;;;14.70;82.35
39769;BME280;38939;47.824;14.642;2023-10-09T05:02:38;97284.56;;;14.67;82.81
39769;BME280;38939;47.824;14.642;2023-10-09T05:03:40;97264.22;;;14.63;82.91
39769;BME280;38939;47.824;14.642;2023-10-09T05:04:42;97261.34;;;14.64;82.60
39769;BME280;38939;47.824;14.642;2023-10-09T05:05:44;97267.41;;;14.65;83.06
39769;BME280;38939;47.824;14.642;2023-10-09T05:06:47;97278.34;;;14.62;83.34
39769;BME280;38939;47.824;14.642;2023-10-09T05:07:56;97271.50;;;14.60;83.11
39769;BME280;38939;47.824;14.642;2023-10-09T05:08:58;97267.63;;;14.63;82.66
39769;BME280;38939;47.824;14.642;2023-10-09T05:10:09;97266.84;;;14.63;83.03
39769;BME280;38939;47.824;14.642;2023-10-09T05:11:18;97263.84;;;14.59;83.41
39769;BME280;38939;47.824;14.642;2023-10-09T05:12:55;97263.03;;;14.58;83.04
39769;BME280;38939;47.824;14.642;2023-10-09T05:14:00;97247.41;;;14.64;82.75
39769;BME280;38939;47.824;14.642;2023-10-09T05:15:14;97263.97;;;14.64;83.31
39769;BME280;38939;47.824;14.642;2023-10-09T05:16:17;97261.00;;;14.60;83.44
39769;BME280;38939;47.824;14.642;2023-10-09T05:17:30;97257.38;;;14.55;83.76
39769;BME280;38939;47.824;14.642;2023-10-09T05:18:36;97265.88;;;14.57;83.61
39769;BME280;38939;47.824;14.642;2023-10-09T05:19:39;97263.03;;;14.58;83.26
39769;BME280;38939;47.824;14.642;2023-10-09T05:20:44;97277.75;;;14.59;83.04
39769;BME280;38939;47.824;14.642;2023-10-09T05:21:59;97275.13;;;14.59;83.08
39769;BME280;38939;47.824;14.642;2023-10-09T05:23:11;97259.38;;;14.59;83.13
39769;BME280;38939;47.824;14.642;2023-10-09T05:24:25;97252.94;;;14.55;83.75
39769;BME280;38939;47.824;14.642;2023-10-09T05:25:29;97263.63;;;14.54;83.35
39769;BME280;38939;47.824;14.642;2023-10-09T05:26:49;97263.63;;;14.54;83.27
39769;BME280;38939;47.824;14.642;2023-10-09T05:27:51;97271.94;;;14.57;83.14
39769;BME280;38939;47.824;14.642;2023-10-09T05:28:54;97243.63;;;14.59;83.00
39769;BME280;38939;47.824;14.642;2023-10-09T05:29:59;97239.75;;;14.62;82.84
39769;BME280;38939;47.824;14.642;2023-10-09T05:31:15;97265.81;;;14.64;82.91
39769;BME280;38939;47.824;14.642;2023-10-09T05:32:46;97267.41;;;14.65;82.79
39769;BME280;38939;47.824;14.642;2023-10-09T05:33:50;97247.19;;;14.65;82.80
39769;BME280;38939;47.824;14.642;2023-10-09T05:34:55;97245.59;;;14.64;83.43
39769;BME280;38939;47.824;14.642;2023-10-09T05:36:05;97258.97;;;14.63;83.62
39769;BME280;38939;47.824;14.642;2023-10-09T05:37:33;97253.69;;;14.63;83.93
39769;BME280;38939;47.824;14.642;2023-10-09T05:38:36;97259.97;;;14.62;84.31
39769;BME280;38939;47.824;14.642;2023-10-09T05:39:50;97254.91;;;14.60;84.15
39769;BME280;38939;47.824;14.642;2023-10-09T05:41:02;97249.25;;;14.63;84.38
39769;BME280;38939;47.824;14.642;2023-10-09T05:42:24;97255.50;;;14.62;84.50
39769;BME280;38939;47.824;14.642;2023-10-09T05:43:30;97250.63;;;14.66;84.11
39769;BME280;38939;47.824;14.642;2023-10-09T05:44:51;97249.97;;;14.70;83.67
39769;BME280;38939;47.824;14.642;2023-10-09T05:46:11;97264.72;;;14.71;83.92
39769;BME280;38939;47.824;14.642;2023-10-09T05:47:17;97255.22;;;14.70;84.04
39769;BME280;38939;47.824;14.642;2023-10-09T05:48:33;97260.03;;;14.73;83.91
39769;BME280;38939;47.824;14.642;2023-10-09T05:49:55;97266.47;;;14.77;83.80
39769;BME280;38939;47.824;14.642;2023-10-09T05:51:17;97261.78;;;14.79;83.80
39769;BME280;38939;47.824;14.642;2023-10-09T05:52:45;97256.63;;;14.73;84.80
39769;BME280;38939;47.824;14.642;2023-10-09T05:53:53;97268.22;;;14.65;85.07